sensor_id;sensor_type;location;lat;lon;timestamp;temperature;humidity
2024;DHT22;1016;48.770;9.154;2023-04-03T00:01:12;7.80;99.90
2024;DHT22;1016;48.770;9.154;2023-04-03T00:03:38;7.80;99.90
2024;DHT22;1016;48.770;9.154;2023-04-03T00:06:04;7.80;99.90
2024;DHT22;1016;48.770;9.154;2023-04-03T00:08:32;7.80;99.90
2024;DHT22;1016;48.770;9.154;2023-04-03T00:10:58;7.70;99.90
2024;DHT22;1016;48.770;9.154;2023-04-03T00:13:23;7.70;99.90
2024;DHT22;1016;48.770;9.154;2023-04-03T00:15:49;7.80;99.90
2024;DHT22;1016;48.770;9.154;2023-04-03T00:18:15;7.70;99.90
2024;DHT22;1016;48.770;9.154;2023-04-03T00:20:40;7.80;99.90
2024;DHT22;1016;48.770;9.154;2023-04-03T00:23:06;7.80;99.90
2024;DHT22;1016;48.770;9.154;2023-04-03T00:25:32;7.70;99.90
2024;DHT22;1016;48.770;9.154;2023-04-03T00:27:57;7.80;99.90
2024;DHT22;1016;48.770;9.154;2023-04-03T00:30:23;7.80;99.90
2024;DHT22;1016;48.770;9.154;2023-04-03T00:32:49;7.80;99.90
2024;DHT22;1016;48.770;9.154;2023-04-03T00:35:15;7.80;99.90
2024;DHT22;1016;48.770;9.154;2023-04-03T00:37:42;7.80;99.90
2024;DHT22;1016;48.770;9.154;2023-04-03T00:40:09;7.90;99.90
2024;DHT22;1016;48.770;9.154;2023-04-03T00:42:36;7.60;99.90
2024;DHT22;1016;48.770;9.154;2023-04-03T00:47:28;7.70;99.90
2024;DHT22;1016;48.770;9.154;2023-04-03T00:49:54;7.70;99.90
2024;DHT22;1016;48.770;9.154;2023-04-03T00:52:23;7.70;99.90
2024;DHT22;1016;48.770;9.154;2023-04-03T00:54:52;7.80;99.90
2024;DHT22;1016;48.770;9.154;2023-04-03T00:57:19;7.60;99.90
2024;DHT22;1016;48.770;9.154;2023-04-03T00:59:50;7.70;99.90
2024;DHT22;1016;48.770;9.154;2023-04-03T01:02:17;7.60;99.90
2024;DHT22;1016;48.770;9.154;2023-04-03T01:04:43;7.70;99.90
2024;DHT22;1016;48.770;9.154;2023-04-03T01:07:25;7.60;99.90
2024;DHT22;1016;48.770;9.154;2023-04-03T01:09:54;7.60;99.90
2024;DHT22;1016;48.770;9.154;2023-04-03T01:12:25;7.50;99.90
2024;DHT22;1016;48.770;9.154;2023-04-03T01:14:54;7.50;99.90
2024;DHT22;1016;48.770;9.154;2023-04-03T01:17:39;7.50;99.90
2024;DHT22;1016;48.770;9.154;2023-04-03T01:28:12;7.50;99.90
2024;DHT22;1016;48.770;9.154;2023-04-03T01:33:25;7.60;99.90
2024;DHT22;1016;48.770;9.154;2023-04-03T01:35:51;7.60;99.90
2024;DHT22;1016;48.770;9.154;2023-04-03T01:38:17;7.50;99.90
2024;DHT22;1016;48.770;9.154;2023-04-03T01:40:42;7.50;99.90
2024;DHT22;1016;48.770;9.154;2023-04-03T01:43:08;7.50;99.90
2024;DHT22;1016;48.770;9.154;2023-04-03T01:45:33;7.50;99.90
2024;DHT22;1016;48.770;9.154;2023-04-03T01:47:59;7.40;99.90
2024;DHT22;1016;48.770;9.154;2023-04-03T01:50:25;7.50;99.90
2024;DHT22;1016;48.770;9.154;2023-04-03T01:52:50;7.50;99.90
2024;DHT22;1016;48.770;9.154;2023-04-03T01:55:16;7.50;99.90
2024;DHT22;1016;48.770;9.154;2023-04-03T01:57:41;7.40;99.90
2024;DHT22;1016;48.770;9.154;2023-04-03T02:00:07;7.40;99.90
2024;DHT22;1016;48.770;9.154;2023-04-03T02:02:33;7.40;99.90
2024;DHT22;1016;48.770;9.154;2023-04-03T02:04:59;7.40;99.90
2024;DHT22;1016;48.770;9.154;2023-04-03T02:07:24;7.40;99.90
2024;DHT22;1016;48.770;9.154;2023-04-03T02:09:50;7.30;99.90
2024;DHT22;1016;48.770;9.154;2023-04-03T02:12:16;7.40;99.90
2024;DHT22;1016;48.770;9.154;2023-04-03T02:14:41;7.40;99.90
2024;DHT22;1016;48.770;9.154;2023-04-03T02:17:07;7.50;99.90
2024;DHT22;1016;48.770;9.154;2023-04-03T02:19:34;7.50;99.90
2024;DHT22;1016;48.770;9.154;2023-04-03T02:22:01;7.60;99.90
2024;DHT22;1016;48.770;9.154;2023-04-03T02:24:27;7.60;99.90
2024;DHT22;1016;48.770;9.154;2023-04-03T02:26:53;7.60;99.90
2024;DHT22;1016;48.770;9.154;2023-04-03T02:29:19;7.50;99.90
2024;DHT22;1016;48.770;9.154;2023-04-03T02:31:45;7.50;99.90
2024;DHT22;1016;48.770;9.154;2023-04-03T02:34:11;7.50;99.90
2024;DHT22;1016;48.770;9.154;2023-04-03T02:36:36;7.50;99.90
2024;DHT22;1016;48.770;9.154;2023-04-03T02:39:02;7.50;99.90
2024;DHT22;1016;48.770;9.154;2023-04-03T02:41:28;7.50;99.90
2024;DHT22;1016;48.770;9.154;2023-04-03T02:44:00;7.50;99.90
2024;DHT22;1016;48.770;9.154;2023-04-03T02:46:26;7.60;99.90
2024;DHT22;1016;48.770;9.154;2023-04-03T02:48:52;7.60;99.90
2024;DHT22;1016;48.770;9.154;2023-04-03T02:51:17;7.60;99.90
2024;DHT22;1016;48.770;9.154;2023-04-03T02:53:43;7.70;99.90
2024;DHT22;1016;48.770;9.154;2023-04-03T02:56:08;7.70;99.90
2024;DHT22;1016;48.770;9.154;2023-04-03T02:58:34;7.70;99.90
2024;DHT22;1016;48.770;9.154;2023-04-03T03:01:01;7.70;99.90
2024;DHT22;1016;48.770;9.154;2023-04-03T03:03:26;7.60;99.90
2024;DHT22;1016;48.770;9.154;2023-04-03T03:08:31;7.60;99.90
2024;DHT22;1016;48.770;9.154;2023-04-03T03:10:57;7.60;99.90
2024;DHT22;1016;48.770;9.154;2023-04-03T03:13:23;7.60;99.90
2024;DHT22;1016;48.770;9.154;2023-04-03T03:15:48;7.60;99.90
2024;DHT22;1016;48.770;9.154;2023-04-03T03:18:14;7.60;99.90
2024;DHT22;1016;48.770;9.154;2023-04-03T03:20:39;7.60;99.90
2024;DHT22;1016;48.770;9.154;2023-04-03T03:23:05;7.50;99.90
2024;DHT22;1016;48.770;9.154;2023-04-03T03:25:31;7.50;99.90
2024;DHT22;1016;48.770;9.154;2023-04-03T03:27:56;7.50;99.90
2024;DHT22;1016;48.770;9.154;2023-04-03T03:30:22;7.50;99.90
2024;DHT22;1016;48.770;9.154;2023-04-03T03:32:47;7.50;99.90
2024;DHT22;1016;48.770;9.154;2023-04-03T03:35:13;7.50;99.90
2024;DHT22;1016;48.770;9.154;2023-04-03T03:37:38;7.50;99.90
2024;DHT22;1016;48.770;9.154;2023-04-03T03:40:04;7.50;99.90
2024;DHT22;1016;48.770;9.154;2023-04-03T03:42:30;7.50;99.90
2024;DHT22;1016;48.770;9.154;2023-04-03T03:44:56;7.60;99.90
2024;DHT22;1016;48.770;9.154;2023-04-03T03:47:21;7.50;99.90
2024;DHT22;1016;48.770;9.154;2023-04-03T03:49:46;7.60;99.90
2024;DHT22;1016;48.770;9.154;2023-04-03T03:52:13;7.50;99.90
2024;DHT22;1016;48.770;9.154;2023-04-03T03:54:38;7.50;99.90
2024;DHT22;1016;48.770;9.154;2023-04-03T03:57:04;7.50;99.90
2024;DHT22;1016;48.770;9.154;2023-04-03T03:59:30;7.50;99.90
2024;DHT22;1016;48.770;9.154;2023-04-03T04:01:55;7.60;99.90
2024;DHT22;1016;48.770;9.154;2023-04-03T04:04:21;7.50;99.90
2024;DHT22;1016;48.770;9.154;2023-04-03T04:06:47;7.60;99.90
2024;DHT22;1016;48.770;9.154;2023-04-03T04:09:12;7.60;99.90
2024;DHT22;1016;48.770;9.154;2023-04-03T04:11:38;7.50;99.90
2024;DHT22;1016;48.770;9.154;2023-04-03T04:14:05;7.50;99.90
2024;DHT22;1016;48.770;9.154;2023-04-03T04:16:30;7.40;99.90
2024;DHT22;1016;48.770;9.154;2023-04-03T04:18:56;7.40;99.90
2024;DHT22;1016;48.770;9.154;2023-04-03T04:21:21;7.40;99.90
2024;DHT22;1016;48.770;9.154;2023-04-03T04:23:47;7.40;99.90
2024;DHT22;1016;48.770;9.154;2023-04-03T04:26:13;7.40;99.90
2024;DHT22;1016;48.770;9.154;2023-04-03T04:28:39;7.40;99.90
2024;DHT22;1016;48.770;9.154;2023-04-03T04:31:04;7.40;99.90
2024;DHT22;1016;48.770;9.154;2023-04-03T04:33:30;7.50;99.90
2024;DHT22;1016;48.770;9.154;2023-04-03T04:35:55;7.60;99.90
2024;DHT22;1016;48.770;9.154;2023-04-03T04:38:21;7.50;99.90
2024;DHT22;1016;48.770;9.154;2023-04-03T04:40:48;7.50;99.90
2024;DHT22;1016;48.770;9.154;2023-04-03T04:43:14;7.50;99.90
2024;DHT22;1016;48.770;9.154;2023-04-03T04:45:40;7.60;99.90
2024;DHT22;1016;48.770;9.154;2023-04-03T04:48:06;7.60;99.90
2024;DHT22;1016;48.770;9.154;2023-04-03T04:50:32;7.70;99.90
2024;DHT22;1016;48.770;9.154;2023-04-03T04:52:58;7.70;99.90
2024;DHT22;1016;48.770;9.154;2023-04-03T04:55:23;7.60;99.90
2024;DHT22;1016;48.770;9.154;2023-04-03T04:57:49;7.60;99.90
2024;DHT22;1016;48.770;9.154;2023-04-03T05:00:15;7.50;99.90
2024;DHT22;1016;48.770;9.154;2023-04-03T05:02:41;7.60;99.90
2024;DHT22;1016;48.770;9.154;2023-04-03T05:05:07;7.60;99.90
2024;DHT22;1016;48.770;9.154;2023-04-03T05:07:32;7.50;99.90
2024;DHT22;1016;48.770;9.154;2023-04-03T05:09:58;7.50;99.90
2024;DHT22;1016;48.770;9.154;2023-04-03T05:12:24;7.60;99.90
2024;DHT22;1016;48.770;9.154;2023-04-03T05:14:49;7.60;99.90
2024;DHT22;1016;48.770;9.154;2023-04-03T05:17:15;7.60;99.90
2024;DHT22;1016;48.770;9.154;2023-04-03T05:19:40;7.60;99.90
2024;DHT22;1016;48.770;9.154;2023-04-03T05:22:06;7.60;99.90
2024;DHT22;1016;48.770;9.154;2023-04-03T05:24:31;7.50;99.90
2024;DHT22;1016;48.770;9.154;2023-04-03T05:26:57;7.60;99.90
2024;DHT22;1016;48.770;9.154;2023-04-03T05:29:22;7.50;99.90
2024;DHT22;1016;48.770;9.154;2023-04-03T05:31:51;7.50;99.90
2024;DHT22;1016;48.770;9.154;2023-04-03T05:34:17;7.60;99.90
2024;DHT22;1016;48.770;9.154;2023-04-03T05:36:42;7.60;99.90
2024;DHT22;1016;48.770;9.154;2023-04-03T05:39:08;7.60;99.90
2024;DHT22;1016;48.770;9.154;2023-04-03T05:41:34;7.60;99.90
2024;DHT22;1016;48.770;9.154;2023-04-03T05:44:00;7.60;99.90
2024;DHT22;1016;48.770;9.154;2023-04-03T05:46:25;7.70;99.90
2024;DHT22;1016;48.770;9.154;2023-04-03T05:48:51;7.70;99.90
2024;DHT22;1016;48.770;9.154;2023-04-03T05:51:25;7.60;99.90
2024;DHT22;1016;48.770;9.154;2023-04-03T05:53:59;7.60;99.90
2024;DHT22;1016;48.770;9.154;2023-04-03T05:56:26;7.60;99.90
2024;DHT22;1016;48.770;9.154;2023-04-03T05:58:51;7.60;99.90
2024;DHT22;1016;48.770;9.154;2023-04-03T06:01:17;7.60;99.90
2024;DHT22;1016;48.770;9.154;2023-04-03T06:03:42;7.60;99.90
2024;DHT22;1016;48.770;9.154;2023-04-03T06:06:10;7.60;99.90
2024;DHT22;1016;48.770;9.154;2023-04-03T06:08:37;7.50;99.90
2024;DHT22;1016;48.770;9.154;2023-04-03T06:11:03;7.50;99.90
2024;DHT22;1016;48.770;9.154;2023-04-03T06:13:29;7.60;99.90
2024;DHT22;1016;48.770;9.154;2023-04-03T06:15:54;7.60;99.90
2024;DHT22;1016;48.770;9.154;2023-04-03T06:18:20;7.50;99.90
2024;DHT22;1016;48.770;9.154;2023-04-03T06:20:46;7.50;99.90
2024;DHT22;1016;48.770;9.154;2023-04-03T06:23:11;7.50;99.90
2024;DHT22;1016;48.770;9.154;2023-04-03T06:25:37;7.50;99.90
2024;DHT22;1016;48.770;9.154;2023-04-03T06:28:02;7.50;99.90
2024;DHT22;1016;48.770;9.154;2023-04-03T06:30:28;7.60;99.90
2024;DHT22;1016;48.770;9.154;2023-04-03T06:32:53;7.60;99.90
2024;DHT22;1016;48.770;9.154;2023-04-03T06:35:19;7.60;99.90
2024;DHT22;1016;48.770;9.154;2023-04-03T06:37:45;7.60;99.90
2024;DHT22;1016;48.770;9.154;2023-04-03T06:40:18;7.60;99.90
2024;DHT22;1016;48.770;9.154;2023-04-03T06:42:45;7.70;99.90
2024;DHT22;1016;48.770;9.154;2023-04-03T06:45:11;7.70;99.90
2024;DHT22;1016;48.770;9.154;2023-04-03T06:47:36;7.80;99.90
2024;DHT22;1016;48.770;9.154;2023-04-03T06:50:02;7.80;99.90
2024;DHT22;1016;48.770;9.154;2023-04-03T06:52:28;7.80;99.90
2024;DHT22;1016;48.770;9.154;2023-04-03T06:54:53;7.80;99.90
2024;DHT22;1016;48.770;9.154;2023-04-03T06:57:22;7.80;99.90
2024;DHT22;1016;48.770;9.154;2023-04-03T06:59:48;7.80;99.90
2024;DHT22;1016;48.770;9.154;2023-04-03T07:02:14;7.80;99.90
2024;DHT22;1016;48.770;9.154;2023-04-03T07:04:40;7.80;99.90
2024;DHT22;1016;48.770;9.154;2023-04-03T07:07:05;7.80;99.90
2024;DHT22;1016;48.770;9.154;2023-04-03T07:09:31;7.80;99.90
2024;DHT22;1016;48.770;9.154;2023-04-03T07:11:57;7.90;99.90
2024;DHT22;1016;48.770;9.154;2023-04-03T07:14:22;7.90;99.90
2024;DHT22;1016;48.770;9.154;2023-04-03T07:16:48;7.90;99.90
2024;DHT22;1016;48.770;9.154;2023-04-03T07:19:14;7.90;99.90
2024;DHT22;1016;48.770;9.154;2023-04-03T07:21:39;7.90;99.90
2024;DHT22;1016;48.770;9.154;2023-04-03T07:24:07;8.00;99.90
2024;DHT22;1016;48.770;9.154;2023-04-03T07:26:32;8.00;99.90
2024;DHT22;1016;48.770;9.154;2023-04-03T07:28:58;7.90;99.90
2024;DHT22;1016;48.770;9.154;2023-04-03T07:31:24;7.90;99.90
2024;DHT22;1016;48.770;9.154;2023-04-03T07:33:50;7.90;99.90
2024;DHT22;1016;48.770;9.154;2023-04-03T07:36:19;8.00;99.90
2024;DHT22;1016;48.770;9.154;2023-04-03T07:38:45;7.90;99.90
2024;DHT22;1016;48.770;9.154;2023-04-03T07:41:17;8.00;99.90
2024;DHT22;1016;48.770;9.154;2023-04-03T07:43:44;8.00;99.90
2024;DHT22;1016;48.770;9.154;2023-04-03T07:46:10;8.00;99.90
2024;DHT22;1016;48.770;9.154;2023-04-03T07:48:36;8.00;99.90
2024;DHT22;1016;48.770;9.154;2023-04-03T07:51:02;8.00;99.90
2024;DHT22;1016;48.770;9.154;2023-04-03T07:53:28;8.00;99.90
2024;DHT22;1016;48.770;9.154;2023-04-03T07:55:54;8.00;99.90
2024;DHT22;1016;48.770;9.154;2023-04-03T07:58:22;8.00;99.90
2024;DHT22;1016;48.770;9.154;2023-04-03T08:00:48;8.00;99.90
2024;DHT22;1016;48.770;9.154;2023-04-03T08:03:15;8.00;99.90
2024;DHT22;1016;48.770;9.154;2023-04-03T08:05:46;8.00;99.90
2024;DHT22;1016;48.770;9.154;2023-04-03T08:08:13;8.10;99.90
2024;DHT22;1016;48.770;9.154;2023-04-03T08:10:40;8.10;99.90
2024;DHT22;1016;48.770;9.154;2023-04-03T08:13:06;8.10;99.90
2024;DHT22;1016;48.770;9.154;2023-04-03T08:15:32;8.10;99.90
2024;DHT22;1016;48.770;9.154;2023-04-03T08:17:58;8.10;99.90
2024;DHT22;1016;48.770;9.154;2023-04-03T08:20:24;8.00;99.90
2024;DHT22;1016;48.770;9.154;2023-04-03T08:22:50;8.00;99.90
2024;DHT22;1016;48.770;9.154;2023-04-03T08:25:16;8.10;99.90
2024;DHT22;1016;48.770;9.154;2023-04-03T08:27:42;8.00;99.90
2024;DHT22;1016;48.770;9.154;2023-04-03T08:30:08;8.00;99.90
2024;DHT22;1016;48.770;9.154;2023-04-03T08:32:34;8.00;99.90
2024;DHT22;1016;48.770;9.154;2023-04-03T08:35:01;8.00;99.90
2024;DHT22;1016;48.770;9.154;2023-04-03T08:37:27;8.00;99.90
2024;DHT22;1016;48.770;9.154;2023-04-03T08:39:53;8.00;99.90
2024;DHT22;1016;48.770;9.154;2023-04-03T08:45:16;8.20;99.90
2024;DHT22;1016;48.770;9.154;2023-04-03T08:48:05;8.20;99.90
2024;DHT22;1016;48.770;9.154;2023-04-03T08:50:45;8.20;99.90
2024;DHT22;1016;48.770;9.154;2023-04-03T08:53:14;8.30;99.90
2024;DHT22;1016;48.770;9.154;2023-04-03T08:55:51;8.40;99.90
2024;DHT22;1016;48.770;9.154;2023-04-03T08:58:21;8.40;99.90
2024;DHT22;1016;48.770;9.154;2023-04-03T09:03:18;8.40;99.90
2024;DHT22;1016;48.770;9.154;2023-04-03T09:05:55;8.30;99.90
2024;DHT22;1016;48.770;9.154;2023-04-03T09:08:31;8.50;99.90
2024;DHT22;1016;48.770;9.154;2023-04-03T09:11:27;8.60;99.90
2024;DHT22;1016;48.770;9.154;2023-04-03T09:19:33;8.70;99.90
2024;DHT22;1016;48.770;9.154;2023-04-03T09:22:16;8.80;99.90
2024;DHT22;1016;48.770;9.154;2023-04-03T09:24:45;8.90;99.90
2024;DHT22;1016;48.770;9.154;2023-04-03T09:27:12;9.00;99.90
2024;DHT22;1016;48.770;9.154;2023-04-03T09:29:43;9.10;99.90
2024;DHT22;1016;48.770;9.154;2023-04-03T09:32:28;8.90;99.90
2024;DHT22;1016;48.770;9.154;2023-04-03T09:34:59;9.00;99.90
2024;DHT22;1016;48.770;9.154;2023-04-03T09:37:44;9.00;99.90
2024;DHT22;1016;48.770;9.154;2023-04-03T09:40:32;9.00;99.90
2024;DHT22;1016;48.770;9.154;2023-04-03T09:43:08;9.00;99.90
2024;DHT22;1016;48.770;9.154;2023-04-03T09:45:45;9.00;99.90
2024;DHT22;1016;48.770;9.154;2023-04-03T09:51:01;9.00;99.90
2024;DHT22;1016;48.770;9.154;2023-04-03T09:55:53;9.00;99.90
2024;DHT22;1016;48.770;9.154;2023-04-03T09:58:35;9.00;99.90
2024;DHT22;1016;48.770;9.154;2023-04-03T10:01:03;9.00;99.70
2024;DHT22;1016;48.770;9.154;2023-04-03T10:03:35;9.00;99.40
2024;DHT22;1016;48.770;9.154;2023-04-03T10:06:03;9.00;99.20
2024;DHT22;1016;48.770;9.154;2023-04-03T10:08:31;8.90;99.20
2024;DHT22;1016;48.770;9.154;2023-04-03T10:11:17;8.90;99.00
2024;DHT22;1016;48.770;9.154;2023-04-03T10:13:58;8.90;99.10
2024;DHT22;1016;48.770;9.154;2023-04-03T10:16:29;8.90;98.90
2024;DHT22;1016;48.770;9.154;2023-04-03T10:19:14;8.90;98.50
2024;DHT22;1016;48.770;9.154;2023-04-03T10:22:03;8.80;98.20
2024;DHT22;1016;48.770;9.154;2023-04-03T10:24:52;8.80;98.70
2024;DHT22;1016;48.770;9.154;2023-04-03T10:27:46;8.70;98.50
2024;DHT22;1016;48.770;9.154;2023-04-03T10:43:59;8.80;97.60
2024;DHT22;1016;48.770;9.154;2023-04-03T10:46:52;8.90;97.60
2024;DHT22;1016;48.770;9.154;2023-04-03T10:49:30;8.80;97.30
2024;DHT22;1016;48.770;9.154;2023-04-03T10:52:12;8.70;97.40
2024;DHT22;1016;48.770;9.154;2023-04-03T10:54:49;8.70;97.40
2024;DHT22;1016;48.770;9.154;2023-04-03T10:57:17;8.80;97.50
2024;DHT22;1016;48.770;9.154;2023-04-03T10:59:50;9.00;97.80
2024;DHT22;1016;48.770;9.154;2023-04-03T11:02:24;8.90;98.10
2024;DHT22;1016;48.770;9.154;2023-04-03T11:05:50;8.90;97.90
2024;DHT22;1016;48.770;9.154;2023-04-03T11:07:53;9.00;96.90
2024;DHT22;1016;48.770;9.154;2023-04-03T11:10:35;8.90;96.30
2024;DHT22;1016;48.770;9.154;2023-04-03T11:13:11;8.90;96.20
2024;DHT22;1016;48.770;9.154;2023-04-03T11:15:38;8.90;96.50
2024;DHT22;1016;48.770;9.154;2023-04-03T11:18:09;8.90;96.90
2024;DHT22;1016;48.770;9.154;2023-04-03T11:20:36;9.00;96.00
2024;DHT22;1016;48.770;9.154;2023-04-03T11:23:25;9.00;95.30
2024;DHT22;1016;48.770;9.154;2023-04-03T11:26:06;9.10;95.30
2024;DHT22;1016;48.770;9.154;2023-04-03T11:28:32;9.10;95.30
2024;DHT22;1016;48.770;9.154;2023-04-03T11:31:13;9.10;95.00
2024;DHT22;1016;48.770;9.154;2023-04-03T11:33:59;9.10;94.00
2024;DHT22;1016;48.770;9.154;2023-04-03T11:36:55;9.00;94.00
2024;DHT22;1016;48.770;9.154;2023-04-03T11:39:34;9.00;93.80
2024;DHT22;1016;48.770;9.154;2023-04-03T11:42:24;9.00;94.10
2024;DHT22;1016;48.770;9.154;2023-04-03T11:44:51;9.10;93.70
2024;DHT22;1016;48.770;9.154;2023-04-03T11:47:46;9.00;93.60
2024;DHT22;1016;48.770;9.154;2023-04-03T11:50:43;9.00;93.50
2024;DHT22;1016;48.770;9.154;2023-04-03T11:58:16;9.10;93.60
2024;DHT22;1016;48.770;9.154;2023-04-03T12:05:54;9.10;93.70
2024;DHT22;1016;48.770;9.154;2023-04-03T12:08:25;9.10;93.40
2024;DHT22;1016;48.770;9.154;2023-04-03T12:16:32;9.10;92.20
2024;DHT22;1016;48.770;9.154;2023-04-03T12:27:14;9.20;92.10
2024;DHT22;1016;48.770;9.154;2023-04-03T12:29:52;9.10;92.40
2024;DHT22;1016;48.770;9.154;2023-04-03T12:46:49;9.10;91.40
2024;DHT22;1016;48.770;9.154;2023-04-03T12:49:33;9.10;91.20
2024;DHT22;1016;48.770;9.154;2023-04-03T12:51:59;9.00;91.30
2024;DHT22;1016;48.770;9.154;2023-04-03T12:54:37;8.90;91.30
2024;DHT22;1016;48.770;9.154;2023-04-03T12:57:19;9.00;91.50
2024;DHT22;1016;48.770;9.154;2023-04-03T12:59:46;9.00;91.70
2024;DHT22;1016;48.770;9.154;2023-04-03T13:02:45;9.10;91.30
2024;DHT22;1016;48.770;9.154;2023-04-03T13:05:16;9.10;91.20
2024;DHT22;1016;48.770;9.154;2023-04-03T13:07:43;9.20;90.90
2024;DHT22;1016;48.770;9.154;2023-04-03T13:12:57;9.30;90.90
2024;DHT22;1016;48.770;9.154;2023-04-03T13:15:30;9.30;90.60
2024;DHT22;1016;48.770;9.154;2023-04-03T13:18:04;9.80;90.80
2024;DHT22;1016;48.770;9.154;2023-04-03T13:20:34;10.00;90.20
2024;DHT22;1016;48.770;9.154;2023-04-03T13:23:05;10.10;87.50
2024;DHT22;1016;48.770;9.154;2023-04-03T13:25:35;10.20;85.80
2024;DHT22;1016;48.770;9.154;2023-04-03T13:28:04;10.30;85.20
2024;DHT22;1016;48.770;9.154;2023-04-03T13:33:00;10.50;85.20
2024;DHT22;1016;48.770;9.154;2023-04-03T13:35:37;10.60;83.30
2024;DHT22;1016;48.770;9.154;2023-04-03T13:40:52;10.30;83.80
2024;DHT22;1016;48.770;9.154;2023-04-03T13:43:21;10.20;83.20
2024;DHT22;1016;48.770;9.154;2023-04-03T13:48:47;10.00;81.90
2024;DHT22;1016;48.770;9.154;2023-04-03T13:53:48;10.10;82.30
2024;DHT22;1016;48.770;9.154;2023-04-03T13:56:30;10.30;81.70
2024;DHT22;1016;48.770;9.154;2023-04-03T14:01:46;10.50;81.30
2024;DHT22;1016;48.770;9.154;2023-04-03T14:06:44;10.20;78.20
2024;DHT22;1016;48.770;9.154;2023-04-03T14:09:10;10.20;78.00
2024;DHT22;1016;48.770;9.154;2023-04-03T14:11:36;10.10;77.90
2024;DHT22;1016;48.770;9.154;2023-04-03T14:14:06;10.10;77.90
2024;DHT22;1016;48.770;9.154;2023-04-03T14:16:38;10.20;79.00
2024;DHT22;1016;48.770;9.154;2023-04-03T14:19:04;10.40;77.90
2024;DHT22;1016;48.770;9.154;2023-04-03T14:21:30;10.40;78.00
2024;DHT22;1016;48.770;9.154;2023-04-03T14:23:55;10.20;77.70
2024;DHT22;1016;48.770;9.154;2023-04-03T14:26:23;10.10;78.40
2024;DHT22;1016;48.770;9.154;2023-04-03T14:28:51;10.10;78.80
2024;DHT22;1016;48.770;9.154;2023-04-03T14:31:18;10.10;79.10
2024;DHT22;1016;48.770;9.154;2023-04-03T14:33:45;10.00;76.70
2024;DHT22;1016;48.770;9.154;2023-04-03T14:36:21;9.90;78.30
2024;DHT22;1016;48.770;9.154;2023-04-03T14:38:47;9.90;78.90
2024;DHT22;1016;48.770;9.154;2023-04-03T14:41:15;10.00;78.70
2024;DHT22;1016;48.770;9.154;2023-04-03T14:43:42;13.10;81.30
2024;DHT22;1016;48.770;9.154;2023-04-03T14:51:13;19.20;96.20
2024;DHT22;1016;48.770;9.154;2023-04-03T14:53:39;19.50;60.50
2024;DHT22;1016;48.770;9.154;2023-04-03T14:56:27;19.10;54.10
2024;DHT22;1016;48.770;9.154;2023-04-03T14:58:56;17.80;51.60
2024;DHT22;1016;48.770;9.154;2023-04-03T15:01:22;16.80;52.20
2024;DHT22;1016;48.770;9.154;2023-04-03T15:03:47;15.90;51.90
2024;DHT22;1016;48.770;9.154;2023-04-03T15:06:14;15.10;51.50
2024;DHT22;1016;48.770;9.154;2023-04-03T15:08:41;14.30;51.20
2024;DHT22;1016;48.770;9.154;2023-04-03T15:11:09;13.70;51.70
2024;DHT22;1016;48.770;9.154;2023-04-03T15:13:35;13.30;51.80
2024;DHT22;1016;48.770;9.154;2023-04-03T15:16:01;12.80;51.70
2024;DHT22;1016;48.770;9.154;2023-04-03T15:18:27;12.30;52.00
2024;DHT22;1016;48.770;9.154;2023-04-03T15:20:56;12.00;52.80
2024;DHT22;1016;48.770;9.154;2023-04-03T15:23:22;11.80;53.50
2024;DHT22;1016;48.770;9.154;2023-04-03T15:25:53;11.60;53.80
2024;DHT22;1016;48.770;9.154;2023-04-03T15:28:28;11.50;54.10
2024;DHT22;1016;48.770;9.154;2023-04-03T15:30:55;11.40;54.70
2024;DHT22;1016;48.770;9.154;2023-04-03T15:33:21;11.50;54.50
2024;DHT22;1016;48.770;9.154;2023-04-03T15:35:47;11.40;53.40
2024;DHT22;1016;48.770;9.154;2023-04-03T15:38:13;11.20;52.90
2024;DHT22;1016;48.770;9.154;2023-04-03T15:40:38;11.00;53.40
2024;DHT22;1016;48.770;9.154;2023-04-03T15:43:05;10.90;53.40
2024;DHT22;1016;48.770;9.154;2023-04-03T15:45:31;10.70;53.60
2024;DHT22;1016;48.770;9.154;2023-04-03T15:47:59;10.50;53.80
2024;DHT22;1016;48.770;9.154;2023-04-03T15:50:24;10.40;54.80
2024;DHT22;1016;48.770;9.154;2023-04-03T15:52:51;10.20;54.90
2024;DHT22;1016;48.770;9.154;2023-04-03T15:55:21;10.20;55.30
2024;DHT22;1016;48.770;9.154;2023-04-03T15:57:47;10.10;55.40
2024;DHT22;1016;48.770;9.154;2023-04-03T16:00:13;10.20;56.00
2024;DHT22;1016;48.770;9.154;2023-04-03T16:02:38;10.40;56.40
2024;DHT22;1016;48.770;9.154;2023-04-03T16:05:05;10.70;56.80
2024;DHT22;1016;48.770;9.154;2023-04-03T16:07:31;10.90;56.10
2024;DHT22;1016;48.770;9.154;2023-04-03T16:09:56;11.00;55.40
2024;DHT22;1016;48.770;9.154;2023-04-03T16:12:22;10.90;54.80
2024;DHT22;1016;48.770;9.154;2023-04-03T16:14:47;10.70;55.00
2024;DHT22;1016;48.770;9.154;2023-04-03T16:17:13;10.70;55.50
2024;DHT22;1016;48.770;9.154;2023-04-03T16:19:38;10.70;55.10
2024;DHT22;1016;48.770;9.154;2023-04-03T16:22:04;10.60;55.10
2024;DHT22;1016;48.770;9.154;2023-04-03T16:24:30;10.50;54.90
2024;DHT22;1016;48.770;9.154;2023-04-03T16:26:55;10.40;55.20
2024;DHT22;1016;48.770;9.154;2023-04-03T16:29:21;10.40;55.30
2024;DHT22;1016;48.770;9.154;2023-04-03T16:31:46;10.30;55.10
2024;DHT22;1016;48.770;9.154;2023-04-03T16:34:12;10.20;54.80
2024;DHT22;1016;48.770;9.154;2023-04-03T16:36:38;10.20;54.70
2024;DHT22;1016;48.770;9.154;2023-04-03T16:39:03;10.00;54.00
2024;DHT22;1016;48.770;9.154;2023-04-03T16:41:29;9.90;55.40
2024;DHT22;1016;48.770;9.154;2023-04-03T16:43:55;9.90;55.80
2024;DHT22;1016;48.770;9.154;2023-04-03T16:46:20;9.90;56.00
2024;DHT22;1016;48.770;9.154;2023-04-03T16:48:46;9.90;56.10
2024;DHT22;1016;48.770;9.154;2023-04-03T16:51:12;9.90;56.20
2024;DHT22;1016;48.770;9.154;2023-04-03T16:53:38;10.00;55.50
2024;DHT22;1016;48.770;9.154;2023-04-03T16:56:04;9.90;56.10
2024;DHT22;1016;48.770;9.154;2023-04-03T16:58:29;9.80;56.40
2024;DHT22;1016;48.770;9.154;2023-04-03T17:00:55;9.80;56.30
2024;DHT22;1016;48.770;9.154;2023-04-03T17:03:21;9.70;59.50
2024;DHT22;1016;48.770;9.154;2023-04-03T17:05:48;8.60;56.00
2024;DHT22;1016;48.770;9.154;2023-04-03T17:08:16;9.40;69.90
2024;DHT22;1016;48.770;9.154;2023-04-03T17:10:42;9.60;71.70
2024;DHT22;1016;48.770;9.154;2023-04-03T17:13:08;9.60;61.80
2024;DHT22;1016;48.770;9.154;2023-04-03T17:15:33;9.50;58.10
2024;DHT22;1016;48.770;9.154;2023-04-03T17:17:59;9.60;57.70
2024;DHT22;1016;48.770;9.154;2023-04-03T17:20:25;9.50;57.60
2024;DHT22;1016;48.770;9.154;2023-04-03T17:22:50;9.40;59.20
2024;DHT22;1016;48.770;9.154;2023-04-03T17:25:16;9.40;59.20
2024;DHT22;1016;48.770;9.154;2023-04-03T17:27:41;9.30;84.00
2024;DHT22;1016;48.770;9.154;2023-04-03T17:30:07;9.20;60.10
2024;DHT22;1016;48.770;9.154;2023-04-03T17:32:33;9.10;63.50
2024;DHT22;1016;48.770;9.154;2023-04-03T17:34:59;9.20;65.70
2024;DHT22;1016;48.770;9.154;2023-04-03T17:37:24;9.10;63.60
2024;DHT22;1016;48.770;9.154;2023-04-03T17:39:50;9.10;63.80
2024;DHT22;1016;48.770;9.154;2023-04-03T17:42:15;9.20;66.10
2024;DHT22;1016;48.770;9.154;2023-04-03T17:44:41;9.10;63.00
2024;DHT22;1016;48.770;9.154;2023-04-03T17:47:06;9.20;63.10
2024;DHT22;1016;48.770;9.154;2023-04-03T17:49:32;9.10;62.40
2024;DHT22;1016;48.770;9.154;2023-04-03T17:51:58;9.00;61.30
2024;DHT22;1016;48.770;9.154;2023-04-03T17:54:23;9.00;66.20
2024;DHT22;1016;48.770;9.154;2023-04-03T17:56:49;9.10;68.50
2024;DHT22;1016;48.770;9.154;2023-04-03T17:59:15;9.10;80.70
2024;DHT22;1016;48.770;9.154;2023-04-03T18:01:43;9.10;78.90
2024;DHT22;1016;48.770;9.154;2023-04-03T18:04:09;9.10;83.00
2024;DHT22;1016;48.770;9.154;2023-04-03T18:06:47;9.00;69.50
2024;DHT22;1016;48.770;9.154;2023-04-03T18:09:19;9.00;67.70
2024;DHT22;1016;48.770;9.154;2023-04-03T18:11:47;8.90;69.50